Time;durP1;ratioP1;P1;durP2;ratioP2;P2;SDS_P1;SDS_P2;PMS_P1;PMS_P2;Temp;Humidity;BMP_temperature;BMP_pressure;BME280_temperature;BME280_humidity;BME280_pressure;Samples;Min_cycle;Max_cycle;Signal;HPM_P1;HPM_P2
2022/11/23 00:01:17;;;;;;;11.98;4.03;;;;;;;8.13;100.00;99514.00;5005488;28;20049;-68
2022/11/23 00:03:45;;;;;;;14.25;4.80;;;;;;;8.11;100.00;99514.19;5019468;28;20057;-68
2022/11/23 00:06:11;;;;;;;9.02;4.40;;;;;;;8.10;100.00;99520.38;5010985;28;20050;-68
2022/11/23 00:08:38;;;;;;;9.10;4.13;;;;;;;8.04;100.00;99518.41;5011473;28;20530;-68
2022/11/23 00:11:05;;;;;;;10.65;4.65;;;;;;;8.12;100.00;99526.25;5005203;28;20721;-68
2022/11/23 00:13:34;;;;;;;9.32;4.57;;;;;;;8.11;100.00;99524.63;5018851;28;20276;-67
2022/11/23 00:16:08;;;;;;;6.32;4.15;;;;;;;8.17;100.00;99522.34;5012861;28;20045;-68
2022/11/23 00:18:34;;;;;;;11.50;4.88;;;;;;;8.14;100.00;99522.69;5028393;28;20488;-68
2022/11/23 00:21:06;;;;;;;8.95;5.05;;;;;;;8.16;100.00;99524.13;5017258;28;20379;-68
2022/11/23 00:23:36;;;;;;;8.75;4.50;;;;;;;8.16;100.00;99534.59;5023272;28;20659;-68
2022/11/23 00:26:04;;;;;;;11.30;5.10;;;;;;;8.19;100.00;99523.00;5025492;28;20413;-68
2022/11/23 00:28:30;;;;;;;10.30;5.07;;;;;;;8.17;100.00;99533.59;5008708;28;20080;-68
2022/11/23 00:30:57;;;;;;;10.65;4.70;;;;;;;8.16;100.00;99534.59;5017285;28;20107;-68
2022/11/23 00:33:23;;;;;;;11.63;5.05;;;;;;;8.17;100.00;99536.19;5025716;28;20977;-68
2022/11/23 00:36:18;;;;;;;10.20;4.50;;;;;;;8.21;100.00;99531.47;5012125;28;20605;-68
2022/11/23 00:38:46;;;;;;;11.50;4.68;;;;;;;8.20;100.00;99537.69;5017860;28;20149;-68
2022/11/23 00:41:15;;;;;;;12.53;5.50;;;;;;;8.25;100.00;99545.84;5014260;28;20057;-68
2022/11/23 00:43:42;;;;;;;10.98;4.93;;;;;;;8.21;100.00;99539.31;5023137;28;20053;-68
2022/11/23 01:28:27;;;;;;;14.98;5.30;;;;;;;8.31;100.00;99571.31;5009387;28;20124;-68
2022/11/23 01:30:53;;;;;;;14.98;4.35;;;;;;;8.35;100.00;99569.19;5023119;28;20383;-68
2022/11/23 01:33:20;;;;;;;12.68;4.63;;;;;;;8.34;100.00;99568.41;5003510;28;20045;-69
2022/11/23 01:35:46;;;;;;;14.00;3.97;;;;;;;8.34;100.00;99578.84;5001448;28;20056;-68
2022/11/23 01:38:12;;;;;;;11.63;4.25;;;;;;;8.36;100.00;99574.28;5017060;28;20046;-68
2022/11/23 01:40:43;;;;;;;12.23;3.88;;;;;;;8.37;100.00;99570.69;5020449;28;20049;-68
2022/11/23 01:43:15;;;;;;;7.32;3.35;;;;;;;8.42;100.00;99591.13;5024896;28;20053;-68
2022/11/23 01:45:44;;;;;;;9.70;3.92;;;;;;;8.44;100.00;99578.72;5019118;28;20041;-68
2022/11/23 01:48:18;;;;;;;15.25;4.30;;;;;;;8.46;100.00;99577.56;5015874;28;20053;-68
2022/11/23 01:50:48;;;;;;;11.30;3.80;;;;;;;8.44;100.00;99582.13;5015328;28;20053;-68
2022/11/23 01:53:15;;;;;;;9.60;3.38;;;;;;;8.46;100.00;99579.38;5028972;28;20057;-68
2022/11/23 01:55:43;;;;;;;16.05;4.07;;;;;;;8.46;100.00;99574.16;5017699;28;20297;-68
2022/11/23 01:58:13;;;;;;;9.52;3.15;;;;;;;8.48;100.00;99580.84;5015344;28;20049;-68
2022/11/23 02:00:39;;;;;;;12.88;4.30;;;;;;;8.38;100.00;99581.94;5021280;28;20065;-68
2022/11/23 02:03:06;;;;;;;10.80;3.30;;;;;;;8.40;100.00;99575.56;5012497;28;20432;-68
2022/11/23 02:05:42;;;;;;;10.98;3.28;;;;;;;8.44;100.00;99582.13;5023419;28;20581;-68
2022/11/23 02:08:10;;;;;;;8.43;3.25;;;;;;;8.41;100.00;99582.47;5016651;28;20077;-68
2022/11/23 02:10:37;;;;;;;13.82;3.88;;;;;;;8.39;100.00;99588.78;5014777;28;20050;-68
2022/11/23 02:13:07;;;;;;;12.30;3.38;;;;;;;8.44;100.00;99586.56;5005671;28;20474;-68
2022/11/23 02:15:34;;;;;;;12.82;3.20;;;;;;;8.42;100.00;99589.31;5022496;28;20092;-68
2022/11/23 02:18:04;;;;;;;7.90;3.15;;;;;;;8.46;100.00;99598.47;5018262;28;20189;-68
2022/11/23 02:20:31;;;;;;;11.60;3.20;;;;;;;8.42;100.00;99598.97;5018637;28;20510;-68
2022/11/23 02:23:03;;;;;;;11.52;3.28;;;;;;;8.49;100.00;99607.81;5007391;28;20053;-68
2022/11/23 02:25:42;;;;;;;10.80;3.10;;;;;;;8.46;100.00;99601.09;5018606;28;20049;-68
2022/11/23 02:28:10;;;;;;;5.88;2.88;;;;;;;8.49;100.00;99606.00;5013259;28;20037;-68
2022/11/23 02:30:38;;;;;;;8.23;2.90;;;;;;;8.45;100.00;99601.28;5014385;28;20056;-68
2022/11/23 02:33:05;;;;;;;10.93;3.22;;;;;;;8.44;100.00;99605.66;5021489;28;20049;-68
2022/11/23 02:35:32;;;;;;;11.45;2.78;;;;;;;8.43;100.00;99609.28;5021403;28;20123;-68
2022/11/23 02:38:01;;;;;;;7.60;2.67;;;;;;;8.50;100.00;99604.19;5017572;28;20084;-68
2022/11/23 02:40:32;;;;;;;9.55;2.90;;;;;;;8.47;100.00;99609.75;5021456;28;20053;-68
2022/11/23 02:42:59;;;;;;;7.95;2.72;;;;;;;8.47;100.00;99610.56;5012818;28;20053;-69
2022/11/23 02:46:00;;;;;;;7.13;2.47;;;;;;;8.46;100.00;99608.13;5017712;28;20111;-68
2022/11/23 02:48:26;;;;;;;15.38;3.15;;;;;;;8.42;100.00;99612.84;4959606;28;20061;-68
2022/11/23 02:50:53;;;;;;;10.73;2.75;;;;;;;8.43;100.00;99609.28;5006915;28;20096;-68
2022/11/23 02:53:19;;;;;;;9.48;3.10;;;;;;;8.43;100.00;99611.88;5020305;28;20049;-68
2022/11/23 02:55:46;;;;;;;13.90;3.55;;;;;;;8.46;100.00;99611.53;5010024;28;20057;-68
2022/11/23 02:58:12;;;;;;;9.80;3.05;;;;;;;8.45;100.00;99619.56;5001412;28;20050;-68
2022/11/23 03:00:39;;;;;;;10.93;2.95;;;;;;;8.47;100.00;99609.75;5012648;28;20054;-68
2022/11/23 03:03:05;;;;;;;12.52;2.90;;;;;;;8.44;100.00;99610.88;5016301;28;20057;-68
2022/11/23 03:05:32;;;;;;;11.40;3.13;;;;;;;8.47;100.00;99615.81;5013544;28;20038;-69
2022/11/23 03:07:58;;;;;;;10.10;2.70;;;;;;;8.48;100.00;99620.03;5014089;28;20057;-69
2022/11/23 03:10:25;;;;;;;9.95;2.90;;;;;;;8.45;100.00;99617.75;5021442;28;20057;-69
2022/11/23 03:12:55;;;;;;;10.60;2.80;;;;;;;8.51;100.00;99622.34;4999973;28;20517;-68
2022/11/23 03:15:23;;;;;;;8.70;2.35;;;;;;;8.51;100.00;99622.34;5021296;28;20072;-68
2022/11/23 03:17:50;;;;;;;9.53;2.57;;;;;;;8.47;100.00;99622.84;5000653;28;20050;-69
2022/11/23 03:20:16;;;;;;;12.40;2.67;;;;;;;8.45;100.00;99616.94;5016211;28;20054;-68
2022/11/23 03:22:43;;;;;;;8.60;2.42;;;;;;;8.48;100.00;99619.22;5021957;28;20156;-68
2022/11/23 03:25:09;;;;;;;6.35;1.77;;;;;;;8.48;100.00;99619.22;5020801;28;20053;-68
2022/11/23 03:27:37;;;;;;;12.70;2.20;;;;;;;8.56;100.00;99621.03;5012907;28;20060;-69
2022/11/23 03:30:06;;;;;;;8.73;2.42;;;;;;;8.56;100.00;99618.41;5007610;28;20057;-69
2022/11/23 03:32:33;;;;;;;8.75;2.20;;;;;;;8.51;100.00;99618.91;5020885;28;20049;-69
2022/11/23 03:34:59;;;;;;;10.15;2.50;;;;;;;8.49;100.00;99613.03;5015828;28;20049;-68
2022/11/23 03:37:25;;;;;;;8.40;2.17;;;;;;;8.48;100.00;99619.22;5022435;28;20052;-68
2022/11/23 03:39:52;;;;;;;7.88;3.08;;;;;;;8.44;100.00;99618.72;5025656;28;20049;-69
2022/11/23 03:42:18;;;;;;;14.57;2.67;;;;;;;8.45;100.00;99616.94;5021029;28;20052;-69
2022/11/23 03:44:44;;;;;;;9.35;2.50;;;;;;;8.47;100.00;99618.41;5014138;28;20084;-68
2022/11/23 03:47:11;;;;;;;10.38;2.30;;;;;;;8.46;100.00;99619.38;5005211;28;20053;-69
2022/11/23 03:49:37;;;;;;;16.95;2.72;;;;;;;8.50;100.00;99625.91;4998528;28;20107;-68
2022/11/23 03:52:04;;;;;;;7.28;2.15;;;;;;;8.49;100.00;99621.69;5000739;28;20049;-68
2022/11/23 03:54:30;;;;;;;12.45;2.63;;;;;;;8.49;100.00;99615.66;5014425;28;20081;-68
2022/11/23 03:56:56;;;;;;;13.32;2.50;;;;;;;8.47;100.00;99620.22;5029170;28;20508;-68
2022/11/23 03:59:23;;;;;;;9.98;2.72;;;;;;;8.47;100.00;99620.22;5011561;28;20753;-69
2022/11/23 04:01:49;;;;;;;11.05;2.97;;;;;;;8.50;100.00;99628.53;5030859;28;20048;-68
2022/11/23 04:04:17;;;;;;;9.77;2.60;;;;;;;8.51;100.00;99630.19;5019978;28;20045;-68
2022/11/23 04:06:44;;;;;;;11.57;3.33;;;;;;;8.51;100.00;99631.97;5022537;28;20049;-69
2022/11/23 04:09:12;;;;;;;8.25;2.72;;;;;;;8.55;100.00;99628.06;5013814;28;20053;-69
2022/11/23 04:11:38;;;;;;;10.93;2.70;;;;;;;8.54;100.00;99633.44;5020864;28;20060;-68
2022/11/23 04:14:04;;;;;;;10.35;2.80;;;;;;;8.50;100.00;99625.91;5016765;28;20076;-69
2022/11/23 04:16:31;;;;;;;8.25;2.35;;;;;;;8.52;100.00;99623.16;5020081;28;20060;-69
2022/11/23 04:18:57;;;;;;;11.18;2.35;;;;;;;8.50;100.00;99622.50;5022462;28;20053;-68
2022/11/23 04:21:24;;;;;;;10.88;2.22;;;;;;;8.54;100.00;99629.03;5008249;28;21358;-69
2022/11/23 04:23:50;;;;;;;10.27;2.67;;;;;;;8.48;100.00;99627.88;4998041;28;20058;-68
2022/11/23 04:26:16;;;;;;;15.85;3.03;;;;;;;8.47;100.00;99628.06;5013770;28;20049;-69
2022/11/23 04:28:43;;;;;;;12.32;2.85;;;;;;;8.47;100.00;99634.09;5001575;28;20562;-69
2022/11/23 04:31:09;;;;;;;12.05;2.75;;;;;;;8.44;100.00;99625.75;5023791;28;20108;-68
2022/11/23 04:33:35;;;;;;;13.60;2.90;;;;;;;8.40;100.00;99622.63;5009071;28;20502;-69
2022/11/23 04:36:02;;;;;;;14.02;3.30;;;;;;;8.35;100.00;99622.31;5014711;28;20052;-69
2022/11/23 04:38:28;;;;;;;15.00;2.58;;;;;;;8.30;100.00;99621.94;5003891;28;20076;-69
2022/11/23 04:40:55;;;;;;;11.20;2.50;;;;;;;8.30;100.00;99624.56;5022351;28;20049;-69
2022/11/23 04:43:21;;;;;;;16.73;2.45;;;;;;;8.26;100.00;99621.44;5016924;28;20497;-68
2022/11/23 04:45:48;;;;;;;11.30;2.60;;;;;;;8.24;100.00;99631.25;5017456;28;20053;-68
2022/11/23 04:48:14;;;;;;;12.23;2.35;;;;;;;8.22;100.00;99621.94;5024483;28;20049;-69
2022/11/23 04:50:41;;;;;;;10.27;2.30;;;;;;;8.27;100.00;99624.88;5013914;28;20050;-69
2022/11/23 04:53:11;;;;;;;10.90;2.40;;;;;;;8.23;100.00;99631.41;5021596;28;20468;-69
2022/11/23 04:55:38;;;;;;;15.35;2.92;;;;;;;8.23;100.00;99631.41;5016382;28;20050;-69
2022/11/23 04:58:04;;;;;;;7.70;2.08;;;;;;;8.24;100.00;99630.44;5020676;28;20053;-69
2022/11/23 05:00:31;;;;;;;9.80;2.20;;;;;;;8.25;100.00;99632.91;5010378;28;20345;-69
2022/11/23 05:03:00;;;;;;;15.65;2.88;;;;;;;8.29;100.00;99636.81;5009864;28;20050;-69
2022/11/23 05:05:27;;;;;;;11.07;2.40;;;;;;;8.24;100.00;99636.47;5017669;28;20045;-69
2022/11/23 05:07:54;;;;;;;8.93;2.25;;;;;;;8.30;100.00;99635.00;5016417;28;20693;-69
2022/11/23 05:10:20;;;;;;;12.63;2.67;;;;;;;8.30;100.00;99628.00;5031546;28;20507;-69
2022/11/23 05:12:46;;;;;;;10.82;1.98;;;;;;;8.27;100.00;99624.88;5030154;28;20809;-69
2022/11/23 05:15:13;;;;;;;11.40;2.17;;;;;;;8.30;100.00;99629.78;5021935;28;20468;-69
2022/11/23 05:17:40;;;;;;;11.00;2.35;;;;;;;8.23;100.00;99629.63;5024197;28;20049;-70
2022/11/23 05:20:07;;;;;;;8.90;2.05;;;;;;;8.29;100.00;99626.38;5016556;28;20037;-69
2022/11/23 05:22:33;;;;;;;11.40;2.22;;;;;;;8.26;100.00;99618.84;5014715;28;20057;-69
2022/11/23 05:25:00;;;;;;;8.18;2.00;;;;;;;8.27;100.00;99619.66;5018076;28;20137;-69
2022/11/23 05:27:26;;;;;;;8.15;2.05;;;;;;;8.28;100.00;99626.53;5016093;28;20056;-69
2022/11/23 05:29:53;;;;;;;12.32;2.40;;;;;;;8.27;100.00;99620.50;5023147;28;20049;-69
2022/11/23 05:32:19;;;;;;;8.23;2.10;;;;;;;8.27;100.00;99620.50;5018159;28;20053;-69
2022/11/23 05:34:45;;;;;;;8.27;1.80;;;;;;;8.32;100.00;99622.59;5021115;28;20049;-69
2022/11/23 05:37:12;;;;;;;10.23;2.22;;;;;;;8.34;100.00;99622.44;4999393;28;20054;-69
2022/11/23 05:39:38;;;;;;;11.63;2.30;;;;;;;8.34;100.00;99628.50;5017188;28;20103;-69
2022/11/23 05:42:04;;;;;;;9.48;2.22;;;;;;;8.36;100.00;99625.72;5016440;28;20401;-69
2022/11/23 05:44:31;;;;;;;14.32;2.67;;;;;;;8.37;100.00;99629.94;5022723;28;20053;-69
2022/11/23 05:46:58;;;;;;;12.98;2.80;;;;;;;8.38;100.00;99635.03;5023892;28;20100;-69
2022/11/23 05:49:24;;;;;;;7.22;2.35;;;;;;;8.38;100.00;99637.63;5003576;28;20049;-69
2022/11/23 05:51:51;;;;;;;14.18;3.40;;;;;;;8.42;100.00;99628.53;5027011;28;20053;-69
2022/11/23 05:54:17;;;;;;;9.65;2.35;;;;;;;8.40;100.00;99638.28;5018715;28;20045;-69
2022/11/23 05:56:43;;;;;;;10.20;2.53;;;;;;;8.40;100.00;99630.44;5013405;28;20747;-69
2022/11/23 05:59:10;;;;;;;11.55;2.45;;;;;;;8.47;100.00;99641.94;5015665;28;20057;-69
2022/11/23 06:01:37;;;;;;;7.05;2.38;;;;;;;8.45;100.00;99635.25;4994645;28;20076;-69
2022/11/23 06:04:05;;;;;;;7.88;2.10;;;;;;;8.42;100.00;99632.94;5033296;28;20049;-69
2022/11/23 06:06:32;;;;;;;11.40;2.45;;;;;;;8.42;100.00;99644.19;5020224;28;20046;-69
2022/11/23 06:08:58;;;;;;;12.52;2.60;;;;;;;8.42;100.00;99633.75;5014814;28;20608;-69
2022/11/23 06:11:24;;;;;;;6.43;1.98;;;;;;;8.39;100.00;99638.44;5008612;28;20049;-69
2022/11/23 06:13:51;;;;;;;14.35;2.90;;;;;;;8.30;100.00;99637.63;5019543;28;20064;-69
2022/11/23 06:16:17;;;;;;;9.77;2.15;;;;;;;8.30;100.00;99654.13;5026326;28;20037;-69
2022/11/23 06:18:43;;;;;;;12.30;2.40;;;;;;;8.31;100.00;99650.53;5021348;28;20897;-69
2022/11/23 06:21:10;;;;;;;11.85;2.20;;;;;;;8.28;100.00;99643.00;5025831;28;20058;-69
2022/11/23 06:23:36;;;;;;;10.13;2.38;;;;;;;8.27;100.00;99648.38;5010744;28;20107;-69
2022/11/23 06:26:02;;;;;;;12.05;2.30;;;;;;;8.24;100.00;99643.50;5014439;28;20092;-69
2022/11/23 06:28:29;;;;;;;16.23;2.63;;;;;;;8.29;100.00;99649.03;5008186;28;20053;-69
2022/11/23 06:31:00;;;;;;;11.35;2.75;;;;;;;8.24;100.00;99644.31;5024165;28;20050;-69
2022/11/23 06:33:26;;;;;;;11.95;2.55;;;;;;;8.26;100.00;99646.75;5011116;28;20046;-70
2022/11/23 06:35:57;;;;;;;10.05;2.10;;;;;;;8.26;100.00;99652.00;5018810;28;20037;-69
2022/11/23 06:38:24;;;;;;;9.63;2.30;;;;;;;8.32;100.00;99646.94;5014339;28;20049;-69
2022/11/23 06:40:50;;;;;;;10.05;2.88;;;;;;;8.34;100.00;99653.81;4993056;28;20057;-69
2022/11/23 06:43:16;;;;;;;11.90;2.65;;;;;;;8.32;100.00;99649.53;5013091;28;20049;-69
2022/11/23 06:45:43;;;;;;;14.00;2.42;;;;;;;8.31;100.00;99654.91;5004956;28;20057;-69
2022/11/23 06:48:10;;;;;;;11.57;2.28;;;;;;;8.29;100.00;99649.88;5010167;28;20053;-69
2022/11/23 06:50:36;;;;;;;13.95;2.80;;;;;;;8.28;100.00;99658.69;5025424;28;20060;-69
2022/11/23 06:53:03;;;;;;;18.80;2.70;;;;;;;8.26;100.00;99665.88;5017038;28;20483;-69
2022/11/23 06:55:29;;;;;;;10.77;2.20;;;;;;;8.26;100.00;99667.66;5009310;28;20087;-69
2022/11/23 06:57:56;;;;;;;15.57;2.88;;;;;;;8.25;100.00;99666.84;5011772;28;20064;-69
2022/11/23 07:00:23;;;;;;;13.95;2.30;;;;;;;8.22;100.00;99668.97;5030105;28;20053;-69
2022/11/23 07:02:51;;;;;;;9.82;1.92;;;;;;;8.19;100.00;99677.09;5017137;28;20060;-69
2022/11/23 07:05:18;;;;;;;13.23;2.35;;;;;;;8.18;100.00;99673.69;5015270;28;20057;-69
2022/11/23 07:07:44;;;;;;;13.40;2.78;;;;;;;8.19;100.00;99675.31;5017489;28;20076;-69
2022/11/23 07:10:12;;;;;;;17.88;2.75;;;;;;;8.21;100.00;99676.00;5015428;28;20045;-69
2022/11/23 07:12:39;;;;;;;17.83;2.83;;;;;;;8.21;100.00;99673.38;5022813;28;20061;-69
2022/11/23 07:15:06;;;;;;;14.65;2.33;;;;;;;8.23;100.00;99676.66;5015572;28;20060;-69
2022/11/23 07:17:37;;;;;;;12.13;2.33;;;;;;;8.21;100.00;99678.59;5013459;28;20053;-69
2022/11/23 07:20:04;;;;;;;9.10;2.47;;;;;;;8.18;100.00;99680.72;5021780;28;20045;-68
2022/11/23 07:22:31;;;;;;;10.35;2.35;;;;;;;8.13;100.00;99686.41;4994876;28;20123;-69
2022/11/23 07:24:57;;;;;;;18.10;2.15;;;;;;;8.15;100.00;99686.25;5025620;28;20061;-69
2022/11/23 07:27:23;;;;;;;17.50;2.38;;;;;;;8.14;100.00;99701.09;5014453;28;20430;-69
2022/11/23 07:29:50;;;;;;;15.68;2.67;;;;;;;8.14;100.00;99700.28;5030824;28;20539;-69
2022/11/23 07:32:16;;;;;;;15.68;2.80;;;;;;;8.15;100.00;99701.91;5023637;28;20053;-69
2022/11/23 07:34:42;;;;;;;12.35;2.30;;;;;;;8.08;100.00;99705.16;5022498;28;20054;-69
2022/11/23 07:37:09;;;;;;;12.13;2.28;;;;;;;8.12;100.00;99716.13;5030818;28;20118;-69
2022/11/23 07:39:35;;;;;;;17.17;2.42;;;;;;;8.09;100.00;99719.03;5019806;28;20072;-69
2022/11/23 07:42:22;;;;;;;13.07;2.30;;;;;;;8.08;100.00;99725.25;5021211;28;20445;-69
2022/11/23 07:45:09;;;;;;;11.25;2.00;;;;;;;8.11;100.00;99730.97;5014735;28;20049;-69
2022/11/23 07:47:36;;;;;;;16.38;2.40;;;;;;;8.05;100.00;99728.97;5015449;28;20049;-69
2022/11/23 07:50:04;;;;;;;12.60;2.67;;;;;;;8.08;100.00;99731.28;4999956;28;20064;-68
2022/11/23 07:52:30;;;;;;;10.75;2.15;;;;;;;7.99;100.00;99742.66;5021332;28;20387;-68
2022/11/23 07:54:59;;;;;;;18.67;2.63;;;;;;;8.03;100.00;99738.75;5019122;28;20555;-68
2022/11/23 07:57:25;;;;;;;10.20;1.60;;;;;;;8.02;100.00;99731.91;5021616;28;20049;-69
2022/11/23 07:59:52;;;;;;;16.88;2.28;;;;;;;8.05;100.00;99738.59;5027040;28;20054;-69
2022/11/23 08:02:18;;;;;;;16.20;2.63;;;;;;;8.05;100.00;99731.56;5013154;28;20517;-68
2022/11/23 08:04:45;;;;;;;12.52;2.45;;;;;;;8.09;100.00;99734.69;5032001;28;20061;-68
2022/11/23 08:07:11;;;;;;;10.00;1.92;;;;;;;8.07;100.00;99737.47;5016119;28;20191;-68
2022/11/23 08:09:38;;;;;;;13.23;2.38;;;;;;;8.12;100.00;99750.88;5027453;28;20100;-68
2022/11/23 08:12:05;;;;;;;13.77;2.75;;;;;;;8.12;100.00;99743.03;5013709;28;20061;-68
2022/11/23 08:14:31;;;;;;;17.50;2.70;;;;;;;8.14;100.00;99740.28;5022238;28;20410;-68
2022/11/23 08:16:58;;;;;;;17.83;2.42;;;;;;;8.17;100.00;99749.59;5015485;28;20524;-68
2022/11/23 08:19:24;;;;;;;11.57;2.35;;;;;;;8.16;100.00;99745.34;5017323;28;20132;-68
2022/11/23 08:21:51;;;;;;;15.68;3.00;;;;;;;8.19;100.00;99745.84;5018191;28;20041;-68
2022/11/23 08:24:17;;;;;;;13.52;2.50;;;;;;;8.28;100.00;99754.53;5018355;28;20049;-68
2022/11/23 08:26:43;;;;;;;9.65;1.80;;;;;;;8.27;100.00;99751.13;5012934;28;20056;-68
2022/11/23 08:29:10;;;;;;;10.18;2.40;;;;;;;8.30;100.00;99749.97;5013524;28;20486;-68
2022/11/23 08:31:36;;;;;;;14.52;2.67;;;;;;;8.35;100.00;99741.66;5011962;28;20061;-68
2022/11/23 08:34:02;;;;;;;15.35;2.63;;;;;;;8.37;100.00;99748.38;5025253;28;20088;-68
2022/11/23 08:36:29;;;;;;;10.88;2.47;;;;;;;8.42;100.00;99746.13;5022886;28;20060;-68
2022/11/23 08:38:55;;;;;;;12.07;2.20;;;;;;;8.47;100.00;99748.28;5028135;28;20053;-68
2022/11/23 08:41:22;;;;;;;15.98;2.20;;;;;;;8.52;100.00;99757.25;5013040;28;20053;-68
2022/11/23 08:43:50;;;;;;;15.02;2.95;;;;;;;8.63;100.00;99750.13;5014224;28;20058;-68
2022/11/23 08:46:16;;;;;;;19.25;2.58;;;;;;;8.70;100.00;99754.53;5010014;28;20045;-69
2022/11/23 08:48:43;;;;;;;9.25;2.05;;;;;;;8.70;100.00;99754.53;5023356;28;20045;-68
2022/11/23 08:51:09;;;;;;;14.18;2.10;;;;;;;8.76;100.00;99750.47;5030983;28;20064;-68
2022/11/23 08:53:36;;;;;;;11.02;1.90;;;;;;;8.85;100.00;99751.28;5017611;28;20532;-68
2022/11/23 08:56:04;;;;;;;10.38;2.03;;;;;;;8.89;100.00;99753.41;5032848;28;20053;-68
2022/11/23 08:58:31;;;;;;;13.50;1.95;;;;;;;8.86;100.00;99743.28;5025789;28;20046;-68
2022/11/23 09:00:57;;;;;;;10.07;1.90;;;;;;;8.82;100.00;99749.00;5031996;28;20049;-68
2022/11/23 09:03:24;;;;;;;10.70;1.85;;;;;;;8.84;100.00;99744.41;5032449;28;20052;-68
2022/11/23 09:05:50;;;;;;;17.40;2.22;;;;;;;8.82;100.00;99749.81;5020193;28;20049;-68
2022/11/23 09:08:16;;;;;;;13.27;2.85;;;;;;;8.80;100.00;99748.31;5028638;28;20042;-68
2022/11/23 09:10:43;;;;;;;9.88;2.47;;;;;;;8.78;100.00;99747.69;5024154;28;20057;-69
2022/11/23 09:13:09;;;;;;;16.00;2.60;;;;;;;8.81;100.00;99755.22;5025196;28;20061;-68
2022/11/23 09:15:36;;;;;;;11.82;2.22;;;;;;;8.80;100.00;99750.94;5028014;28;20416;-68
2022/11/23 09:18:02;;;;;;;21.33;2.63;;;;;;;8.84;100.00;99747.03;5020598;28;20112;-68
2022/11/23 09:20:29;;;;;;;13.32;2.20;;;;;;;8.82;100.00;99756.84;5028148;28;20410;-68
2022/11/23 09:22:55;;;;;;;15.00;2.60;;;;;;;8.75;100.00;99756.66;5021752;28;20064;-68
2022/11/23 09:25:22;;;;;;;8.73;1.98;;;;;;;8.75;100.00;99756.66;5016849;28;20128;-69
2022/11/23 09:27:55;;;;;;;9.63;2.10;;;;;;;8.72;100.00;99754.34;5016404;28;20057;-68
2022/11/23 09:30:21;;;;;;;10.02;2.90;;;;;;;8.68;100.00;99758.28;5023661;28;20053;-68
2022/11/23 09:32:48;;;;;;;13.25;2.22;;;;;;;8.64;100.00;99754.34;5027646;28;20049;-68
2022/11/23 09:35:14;;;;;;;9.75;1.90;;;;;;;8.67;100.00;99744.41;5022592;28;20057;-68
2022/11/23 09:37:40;;;;;;;9.77;1.85;;;;;;;8.72;100.00;99743.91;5027603;28;20045;-68
2022/11/23 09:40:13;;;;;;;9.05;1.77;;;;;;;8.76;100.00;99741.78;5014629;28;20371;-68
2022/11/23 09:43:01;;;;;;;17.80;3.00;;;;;;;8.82;100.00;99746.38;5018267;28;20510;-68
2022/11/23 09:45:30;;;;;;;13.15;2.05;;;;;;;8.70;100.00;99744.09;5009847;28;20072;-68
2022/11/23 09:48:24;;;;;;;13.50;2.05;;;;;;;8.68;100.00;99746.03;5008294;28;20042;-68
2022/11/23 09:50:59;;;;;;;13.98;2.13;;;;;;;8.74;100.00;99746.38;5024611;28;20490;-68
2022/11/23 09:53:40;;;;;;;10.68;2.17;;;;;;;8.74;100.00;99748.97;5021062;28;20053;-68
2022/11/23 09:56:16;;;;;;;11.68;2.05;;;;;;;8.75;100.00;99748.00;5024786;28;20078;-68
2022/11/23 09:58:42;;;;;;;9.55;2.20;;;;;;;8.75;100.00;99746.22;5003463;28;20049;-68
2022/11/23 10:01:15;;;;;;;11.38;2.05;;;;;;;8.79;100.00;99734.44;5017111;28;20052;-68
2022/11/23 10:03:43;;;;;;;9.85;2.42;;;;;;;8.81;100.00;99735.09;5009552;28;20517;-68
2022/11/23 10:06:24;;;;;;;14.13;2.65;;;;;;;8.84;100.00;99740.03;5011624;28;20053;-68
2022/11/23 10:09:25;;;;;;;10.30;2.05;;;;;;;8.96;100.00;99735.28;5011731;28;20057;-68
2022/11/23 10:12:11;;;;;;;8.20;1.88;;;;;;;9.00;100.00;99730.56;5022283;28;20413;-68
2022/11/23 10:14:52;;;;;;;14.55;3.05;;;;;;;8.96;100.00;99722.22;5008541;28;20050;-68
2022/11/23 10:17:54;;;;;;;9.85;2.13;;;;;;;8.95;100.00;99719.75;5014360;28;20041;-68
2022/11/23 10:20:54;;;;;;;6.95;1.65;;;;;;;8.89;100.00;99713.38;4996784;28;20050;-68
2022/11/23 10:23:45;;;;;;;8.25;1.75;;;;;;;8.94;100.00;99707.66;5022098;28;20057;-68
2022/11/23 10:26:15;;;;;;;8.13;1.42;;;;;;;9.00;100.00;99715.69;5018319;28;20091;-68
2022/11/23 10:28:43;;;;;;;12.20;1.98;;;;;;;8.96;100.00;99713.53;5023067;28;20058;-68
2022/11/23 10:31:21;;;;;;;12.55;2.03;;;;;;;9.06;100.00;99717.63;5030980;28;20524;-68
2022/11/23 10:34:10;;;;;;;9.77;1.80;;;;;;;9.04;100.00;99703.91;5022515;28;20425;-68
2022/11/23 10:36:37;;;;;;;12.80;2.33;;;;;;;9.13;100.00;99698.66;5029608;28;20282;-68
2022/11/23 10:39:15;;;;;;;14.17;2.00;;;;;;;9.13;100.00;99696.84;5020300;28;20041;-68
2022/11/23 10:41:44;;;;;;;7.22;1.85;;;;;;;9.11;100.00;99690.97;5033226;28;20060;-68
2022/11/23 10:44:30;;;;;;;10.60;2.15;;;;;;;9.16;100.00;99682.66;5018512;28;20053;-68
2022/11/23 10:46:58;;;;;;;9.45;2.08;;;;;;;9.20;100.00;99689.19;5019781;28;20076;-68
2022/11/23 10:49:28;;;;;;;7.80;1.92;;;;;;;9.25;100.00;99689.50;5013599;28;20045;-68
2022/11/23 10:52:04;;;;;;;9.20;1.88;;;;;;;9.24;100.00;99680.81;5021217;28;20624;-68
2022/11/23 10:54:34;;;;;;;11.65;1.98;;;;;;;9.33;100.00;99679.03;5027811;28;20049;-68
2022/11/23 10:57:20;;;;;;;8.77;2.10;;;;;;;9.35;100.00;99673.59;5020370;28;20119;-68
2022/11/23 10:59:58;;;;;;;5.05;1.20;;;;;;;9.42;100.00;99669.34;5033423;28;20056;-68
2022/11/23 11:02:25;;;;;;;7.95;1.30;;;;;;;9.40;100.00;99674.75;5015796;28;20055;-68
2022/11/23 11:05:31;;;;;;;8.50;1.60;;;;;;;9.41;100.00;99679.00;5024532;28;20486;-69
2022/11/23 11:08:20;;;;;;;10.07;1.75;;;;;;;9.50;100.00;99680.59;5016182;28;20140;-68
2022/11/23 11:11:00;;;;;;;9.10;1.55;;;;;;;9.54;100.00;99675.06;5028780;28;20053;-68
2022/11/23 11:13:41;;;;;;;11.13;1.55;;;;;;;9.59;100.00;99662.28;5023274;28;20075;-69
2022/11/23 11:16:30;;;;;;;7.32;1.50;;;;;;;9.64;100.00;99668.66;5023168;28;20042;-68
2022/11/23 11:18:58;;;;;;;11.82;1.88;;;;;;;9.75;100.00;99664.84;5020812;28;20039;-68
2022/11/23 11:21:33;;;;;;;12.77;2.40;;;;;;;9.85;100.00;99662.84;5024187;28;20053;-68
2022/11/23 11:24:02;;;;;;;12.63;2.00;;;;;;;9.82;100.00;99670.22;5027613;28;20147;-71
2022/11/23 11:26:32;;;;;;;7.72;1.17;;;;;;;9.94;100.00;99666.25;5017625;28;20653;-68
2022/11/23 11:29:04;;;;;;;12.00;2.03;;;;;;;9.96;100.00;99664.28;5009431;28;20103;-68
2022/11/23 11:31:39;;;;;;;10.10;1.65;;;;;;;9.90;100.00;99659.72;5031242;28;20059;-68
2022/11/23 11:34:41;;;;;;;5.78;1.35;;;;;;;10.04;100.00;99651.13;5031101;28;20056;-68
2022/11/23 11:37:16;;;;;;;7.40;1.50;;;;;;;10.10;100.00;99658.31;5021122;28;20052;-68
2022/11/23 11:40:09;;;;;;;8.30;1.55;;;;;;;10.13;100.00;99654.50;5011959;28;20069;-68
2022/11/23 11:42:42;;;;;;;11.32;1.83;;;;;;;10.20;100.00;99654.66;5024762;28;20057;-68
2022/11/23 11:45:18;;;;;;;6.57;1.27;;;;;;;10.29;100.00;99637.91;5026850;28;20053;-68
2022/11/23 11:48:23;;;;;;;9.52;1.65;;;;;;;10.46;100.00;99659.59;5016069;28;20524;-69
2022/11/23 11:50:58;;;;;;;4.65;1.23;;;;;;;10.46;100.00;99651.75;4988395;28;20390;-68
2022/11/23 11:53:32;;;;;;;6.20;1.55;;;;;;;10.64;100.00;99639.16;5014532;28;20494;-68
2022/11/23 11:56:35;;;;;;;6.68;1.20;;;;;;;10.66;99.84;99642.44;5018065;28;20076;-68
2022/11/23 11:59:27;;;;;;;9.65;1.60;;;;;;;10.72;100.00;99642.69;5008428;28;20479;-68
2022/11/23 12:02:06;;;;;;;6.90;1.83;;;;;;;10.69;100.00;99639.44;5016758;28;20052;-68
2022/11/23 12:04:54;;;;;;;127.63;52.70;;;;;;;10.60;97.73;99631.81;5019049;28;20041;-67
2022/11/23 12:07:31;;;;;;;9.38;1.52;;;;;;;10.51;98.41;99638.94;5016907;28;20049;-69
2022/11/23 12:10:12;;;;;;;9.60;1.85;;;;;;;10.51;100.00;99627.63;5018034;28;20088;-69
2022/11/23 12:12:39;;;;;;;10.30;2.40;;;;;;;10.41;100.00;99633.91;5029712;28;20132;-69
2022/11/23 12:15:23;;;;;;;6.57;1.35;;;;;;;10.42;100.00;99634.72;5029782;28;20064;-69
2022/11/23 12:18:44;;;;;;;6.40;1.20;;;;;;;10.45;100.00;99637.00;5024941;28;20050;-69
2022/11/23 12:21:36;;;;;;;5.25;1.23;;;;;;;10.49;100.00;99622.56;5006052;28;20233;-69
2022/11/23 12:24:40;;;;;;;6.55;1.48;;;;;;;10.57;99.94;99619.06;5024921;28;20636;-69